Terminal Aerodrome Forecast
Issued by NWS Albuquerque, NM

Home | Current Version | Previous Version | Text Only | Print | Product List | Glossary On
Versions: 1 2 3 4 5 6 7 8 9 10 11 12 13 14 15 16
586
FTUS45 KABQ 241120
TAFABQ
TAF
KABQ 241120Z 2412/2512 35006KT P6SM SKC
     FM241500 28006KT P6SM SKC
     FM242000 28018G28KT P6SM SKC
     FM250230 25008KT P6SM SKC
     FM251000 16006KT P6SM SCT200=

USA.gov is the U.S. government's official web portal to all federal, state and local government web resources and services.